KSPI/SPI METAR and TAF weather

Enter ICAO airport designator
Station Type Date Time Source
KSPI METAR 2020/04/02 03:52 UTC NOAA

KSPI 020352Z AUTO 14007KT 10SM CLR 08/03 A3007 RMK AO2 SLP184 T00830033


Station Type Date Time Source
KSPI Decoded METAR 2020/04/02 03:52 UTC NOAA

ABRAHAM LINCOLN CAPITAL AIRPORT , IL, United States (KSPI) 39-51N 89-41W 181M
Apr 01, 2020 - 11:52 PM EDT / 2020.04.02 0352 UTC
Wind: from the SE (140 degrees) at 8 MPH (7 KT):0
Visibility: 10 mile(s):0
Sky conditions: clear
Temperature: 46.9 F (8.3 C)
Dew Point: 37.9 F (3.3 C)
Relative Humidity: 70%
Pressure (altimeter): 30.07 in. Hg (1018 hPa)
ob: KSPI 020352Z AUTO 14007KT 10SM CLR 08/03 A3007 RMK AO2 SLP184 T00830033
cycle: 4

Station Type Date Time Source
KSPI TAF 2020/04/01 18:39 UTC NOAA

TAF KSPI 011737Z 0118/0218 VRB04KT P6SM FEW020
FM020000 VRB04KT P6SM SKC
FM020900 14008KT P6SM BKN200

Example: see airport list